AirNav   Pilot Hours Calculator
 
 724 users online  

TE78 Fossil Creek Ranch Airport
Camp Wood, Texas, USA

GOING TO CAMP WOOD?


FAA INFORMATION EFFECTIVE 07 OCTOBER 2021

Location

FAA Identifier: TE78
Lat/Long: 29-34-07.3200N 099-58-28.2300W
29-34.122000N 099-58.470500W
29.5687000,-99.9745083
(estimated)
Elevation: 1325 ft. / 404 m (estimated)
Variation: 07E (1995)
From city: 5 miles N of CAMP WOOD, TX
Time zone: UTC -5 (UTC -6 during Standard Time)
Zip code: 78833

Airport Operations

Airport use: Private use. Permission required prior to landing
Activation date: 08/2000
Control tower: no
ARTCC: HOUSTON CENTER
FSS: SAN ANGELO FLIGHT SERVICE STATION
Attendance: UNATNDD
Segmented circle: no
Lights: FOR MIRL RY 04/22 CALL 713-230-2389.

Nearby radio navigation aids

VOR radial/distance  VOR name  Freq  Var
RSGr138/31.7ROCKSPRINGS VORTAC114.5510E

 
NDB name  Hdg/Dist  Freq  Var  ID
UVALDE324/26.828107EUVA ..- ...- .-
SPOFFORD035/34.735608EPFO .--. ..-. ---
LA PRYOR342/38.822309ELKX .-.. -.- -..-

Airport Services

Runway Information

Runway 4/22

Dimensions: 5395 x 75 ft. / 1644 x 23 m
Surface: asphalt, in fair condition
Runway edge lights: medium intensity
RUNWAY 4  RUNWAY 22
Traffic pattern: leftleft

Airport Ownership and Management from official FAA records

Ownership: Privately-owned
Owner: F. KENNETH BAILEY
8441 GULF FREEWAY SUITE 600
HOUSTON, TX 77017
Phone 713-230-2389
Manager: RICHARD OLIVER
8402 NELMS
HOUSTON, TX 77061
Phone 713-641-0171

Additional Remarks

FOR CD CTC LAUGHLIN APCH AT 830-298-4350, WHEN APCH CLSD CTC HOUSTON ARTCC AT 281-230-5622.

Instrument Procedures

There are no published instrument procedures at TE78.

Some nearby airports with instrument procedures:

KUVA - Garner Field Airport (25 nm SE)
KECU - Edwards County Airport (25 nm NW)
KHDO - South Texas Regional Airport at Hondo (43 nm E)
KDLF - Laughlin AFB Airport (44 nm W)
KDRT - Del Rio International Airport (51 nm W)
 
Loc | Ops | Rwys | IFR | FBO | Links
Com | Nav | Svcs | Stats | Notes
Area around TE78 (Fossil Creek Ranch Airport)
 
Road maps at: MapQuest Bing Google
 
Aerial photo
No photo
 
Sectional chart

 
Airport distance calculator
Flying to Fossil Creek Ranch Airport? Find the distance to fly.

From to TE78

Sunrise and sunset
Times for 27-Oct-2021
 Local
(UTC-5)
 Zulu
(UTC)
Morning civil twilight07:2612:26
Sunrise07:5112:51
Sunset18:5723:57
Evening civil twilight19:2100:21

Current date and time
Zulu (UTC)  28-Oct-2021 04:04:58
Local (UTC-5)  27-Oct-2021 23:04:58
 
METAR
KUVA 
25nm SE 
280355Z AUTO 00000KT 10SM CLR 12/02 A2990 RMK AO2 T01220017
KECU 
25nm NW 
280355Z AUTO 32004KT 10SM CLR 14/01 A2996 RMK AO2
KT70 
38nm SW 
280358Z AUTO 28003KT 10SM M 12/01 A2983 RMK AO2 SLP093 T01180010 $
KDLF 
43nm W 
280356Z AUTO 32003KT 10SM CLR 13/00 A2989 RMK AO2 SLP114 T01330000 $
KHDO 
44nm E 
280351Z AUTO 34008KT 10SM CLR 12/06 A2987 RMK AO2 SLP106 T01170056
TAF
KDLF 
43nm W 
272313Z 2723/2901 31020G30KT 9999 SKC 520003 QNH2974INS BECMG 2800/2801 30012KT 9999 SKC QNH2975INS BECMG 2818/2819 31012G25KT 9999 SKC QNH2998INS BECMG 2900/2901 31010KT 9999 SKC QNH2999INS TX28/2821Z TN12/2812Z LAST NO AMDS AFT 2723 NEXT 2811
NOTAMs
Click for the latest NOTAMs
NOTAMs are issued by the DoD/FAA and will open in a separate window not controlled by AirNav.

 

 
 

Would you like to see your business listed on this page?

 If your business provides an interesting product or service to pilots, flight crews, aircraft, or users of the Fossil Creek Ranch Airport, you should consider listing it here.  To start the listing process, click on the button below
 
Add a business
 

Other Pages about Fossil Creek Ranch Airport

Update a link
 
Copyright © AirNav, LLC. All rights reserved. Privacy Policy  Contact